sensor_id;sensor_type;location;lat;lon;timestamp;P1;durP1;ratioP1;P2;durP2;ratioP2
21671;SDS011;10997;52.242;8.168;2022-11-21T00:04:36;31.23;;;18.67;;
21671;SDS011;10997;52.242;8.168;2022-11-21T00:09:37;32.70;;;19.02;;
21671;SDS011;10997;52.242;8.168;2022-11-21T00:14:38;32.72;;;19.17;;
21671;SDS011;10997;52.242;8.168;2022-11-21T00:19:38;32.00;;;18.33;;
21671;SDS011;10997;52.242;8.168;2022-11-21T00:24:39;32.00;;;18.90;;
21671;SDS011;10997;52.242;8.168;2022-11-21T00:29:39;30.70;;;18.58;;
21671;SDS011;10997;52.242;8.168;2022-11-21T00:34:40;29.45;;;18.40;;
21671;SDS011;10997;52.242;8.168;2022-11-21T00:39:41;29.08;;;18.60;;
21671;SDS011;10997;52.242;8.168;2022-11-21T00:44:41;28.90;;;17.77;;
21671;SDS011;10997;52.242;8.168;2022-11-21T00:49:42;29.33;;;19.00;;
21671;SDS011;10997;52.242;8.168;2022-11-21T00:54:43;31.65;;;19.10;;
21671;SDS011;10997;52.242;8.168;2022-11-21T00:59:43;33.78;;;18.90;;
21671;SDS011;10997;52.242;8.168;2022-11-21T01:04:44;29.75;;;18.17;;
21671;SDS011;10997;52.242;8.168;2022-11-21T01:09:45;30.38;;;18.83;;
21671;SDS011;10997;52.242;8.168;2022-11-21T01:14:45;30.98;;;18.55;;
21671;SDS011;10997;52.242;8.168;2022-11-21T01:19:46;28.63;;;17.42;;
21671;SDS011;10997;52.242;8.168;2022-11-21T01:24:46;28.75;;;17.48;;
21671;SDS011;10997;52.242;8.168;2022-11-21T01:29:47;29.23;;;17.70;;
21671;SDS011;10997;52.242;8.168;2022-11-21T01:34:48;28.45;;;18.48;;
21671;SDS011;10997;52.242;8.168;2022-11-21T01:39:48;34.40;;;19.50;;
21671;SDS011;10997;52.242;8.168;2022-11-21T01:44:50;29.23;;;17.88;;
21671;SDS011;10997;52.242;8.168;2022-11-21T01:49:52;31.65;;;18.73;;
21671;SDS011;10997;52.242;8.168;2022-11-21T01:54:54;30.95;;;19.05;;
21671;SDS011;10997;52.242;8.168;2022-11-21T02:00:06;28.67;;;17.52;;
21671;SDS011;10997;52.242;8.168;2022-11-21T02:05:11;32.00;;;18.63;;
21671;SDS011;10997;52.242;8.168;2022-11-21T02:10:16;31.45;;;19.23;;
21671;SDS011;10997;52.242;8.168;2022-11-21T02:15:18;28.70;;;18.50;;
21671;SDS011;10997;52.242;8.168;2022-11-21T02:20:24;30.58;;;18.98;;
21671;SDS011;10997;52.242;8.168;2022-11-21T02:25:28;35.25;;;20.60;;
21671;SDS011;10997;52.242;8.168;2022-11-21T02:30:32;33.25;;;20.08;;
21671;SDS011;10997;52.242;8.168;2022-11-21T02:35:36;33.63;;;20.02;;
21671;SDS011;10997;52.242;8.168;2022-11-21T02:40:38;33.38;;;19.55;;
21671;SDS011;10997;52.242;8.168;2022-11-21T02:45:43;32.38;;;20.38;;
21671;SDS011;10997;52.242;8.168;2022-11-21T02:50:45;34.00;;;19.75;;
21671;SDS011;10997;52.242;8.168;2022-11-21T02:55:46;31.75;;;19.45;;
21671;SDS011;10997;52.242;8.168;2022-11-21T03:00:47;32.90;;;20.00;;
21671;SDS011;10997;52.242;8.168;2022-11-21T03:05:48;34.08;;;20.15;;
21671;SDS011;10997;52.242;8.168;2022-11-21T03:10:49;35.03;;;19.63;;
21671;SDS011;10997;52.242;8.168;2022-11-21T03:15:49;33.25;;;19.83;;
21671;SDS011;10997;52.242;8.168;2022-11-21T03:20:51;33.72;;;19.05;;
21671;SDS011;10997;52.242;8.168;2022-11-21T03:25:51;31.73;;;19.13;;
21671;SDS011;10997;52.242;8.168;2022-11-21T03:30:52;33.08;;;18.67;;
21671;SDS011;10997;52.242;8.168;2022-11-21T03:35:53;32.50;;;19.38;;
21671;SDS011;10997;52.242;8.168;2022-11-21T03:40:53;32.78;;;19.52;;
21671;SDS011;10997;52.242;8.168;2022-11-21T03:45:54;35.42;;;21.13;;
21671;SDS011;10997;52.242;8.168;2022-11-21T03:50:54;34.85;;;21.05;;
21671;SDS011;10997;52.242;8.168;2022-11-21T03:55:55;35.13;;;20.63;;
21671;SDS011;10997;52.242;8.168;2022-11-21T04:00:56;34.10;;;20.25;;
21671;SDS011;10997;52.242;8.168;2022-11-21T04:05:56;33.50;;;19.50;;
21671;SDS011;10997;52.242;8.168;2022-11-21T04:10:57;33.05;;;20.17;;
21671;SDS011;10997;52.242;8.168;2022-11-21T04:15:58;33.28;;;19.83;;
21671;SDS011;10997;52.242;8.168;2022-11-21T04:20:59;33.65;;;20.45;;
21671;SDS011;10997;52.242;8.168;2022-11-21T04:26:02;33.97;;;20.48;;
21671;SDS011;10997;52.242;8.168;2022-11-21T04:31:06;34.92;;;20.55;;
21671;SDS011;10997;52.242;8.168;2022-11-21T04:36:08;37.40;;;20.70;;
21671;SDS011;10997;52.242;8.168;2022-11-21T04:41:09;33.45;;;20.30;;
21671;SDS011;10997;52.242;8.168;2022-11-21T04:46:09;35.58;;;20.45;;
21671;SDS011;10997;52.242;8.168;2022-11-21T04:51:10;36.55;;;21.17;;
21671;SDS011;10997;52.242;8.168;2022-11-21T04:56:11;32.22;;;19.90;;
21671;SDS011;10997;52.242;8.168;2022-11-21T05:01:15;35.03;;;20.15;;
21671;SDS011;10997;52.242;8.168;2022-11-21T05:06:15;35.30;;;20.55;;
21671;SDS011;10997;52.242;8.168;2022-11-21T05:11:16;34.53;;;21.33;;
21671;SDS011;10997;52.242;8.168;2022-11-21T05:16:35;38.15;;;21.73;;
21671;SDS011;10997;52.242;8.168;2022-11-21T05:21:36;37.97;;;21.20;;
21671;SDS011;10997;52.242;8.168;2022-11-21T05:26:37;38.17;;;20.63;;
21671;SDS011;10997;52.242;8.168;2022-11-21T05:31:37;37.70;;;21.40;;
21671;SDS011;10997;52.242;8.168;2022-11-21T05:36:38;34.42;;;20.88;;
21671;SDS011;10997;52.242;8.168;2022-11-21T05:41:39;32.97;;;20.23;;
21671;SDS011;10997;52.242;8.168;2022-11-21T05:46:39;34.55;;;20.50;;
21671;SDS011;10997;52.242;8.168;2022-11-21T05:51:40;34.35;;;20.10;;
21671;SDS011;10997;52.242;8.168;2022-11-21T05:56:41;34.05;;;20.50;;
21671;SDS011;10997;52.242;8.168;2022-11-21T06:01:41;35.88;;;20.83;;
21671;SDS011;10997;52.242;8.168;2022-11-21T06:07:00;34.88;;;20.98;;
21671;SDS011;10997;52.242;8.168;2022-11-21T06:12:01;35.42;;;21.25;;
21671;SDS011;10997;52.242;8.168;2022-11-21T06:17:02;35.75;;;20.70;;
21671;SDS011;10997;52.242;8.168;2022-11-21T06:22:03;40.00;;;21.90;;
21671;SDS011;10997;52.242;8.168;2022-11-21T06:27:03;36.03;;;21.70;;
21671;SDS011;10997;52.242;8.168;2022-11-21T06:32:04;36.17;;;21.35;;
21671;SDS011;10997;52.242;8.168;2022-11-21T06:37:05;38.05;;;21.67;;
21671;SDS011;10997;52.242;8.168;2022-11-21T06:42:05;35.53;;;20.85;;
21671;SDS011;10997;52.242;8.168;2022-11-21T06:47:06;34.83;;;19.92;;
21671;SDS011;10997;52.242;8.168;2022-11-21T06:52:06;35.75;;;19.73;;
21671;SDS011;10997;52.242;8.168;2022-11-21T06:57:07;33.75;;;20.55;;
21671;SDS011;10997;52.242;8.168;2022-11-21T07:02:14;48.15;;;26.35;;
21671;SDS011;10997;52.242;8.168;2022-11-21T07:07:15;63.03;;;28.13;;
21671;SDS011;10997;52.242;8.168;2022-11-21T07:12:15;68.13;;;31.77;;
21671;SDS011;10997;52.242;8.168;2022-11-21T07:17:35;37.25;;;21.52;;
21671;SDS011;10997;52.242;8.168;2022-11-21T07:22:35;36.97;;;20.75;;
21671;SDS011;10997;52.242;8.168;2022-11-21T07:27:36;36.13;;;21.25;;
21671;SDS011;10997;52.242;8.168;2022-11-21T07:32:37;69.22;;;38.95;;
21671;SDS011;10997;52.242;8.168;2022-11-21T07:37:38;68.70;;;40.42;;
21671;SDS011;10997;52.242;8.168;2022-11-21T07:42:39;49.35;;;30.08;;
21671;SDS011;10997;52.242;8.168;2022-11-21T07:47:40;46.47;;;25.80;;
21671;SDS011;10997;52.242;8.168;2022-11-21T07:52:41;40.90;;;22.73;;
21671;SDS011;10997;52.242;8.168;2022-11-21T07:57:42;39.13;;;23.27;;
21671;SDS011;10997;52.242;8.168;2022-11-21T08:02:42;34.67;;;20.08;;
21671;SDS011;10997;52.242;8.168;2022-11-21T08:07:43;37.25;;;20.52;;
21671;SDS011;10997;52.242;8.168;2022-11-21T08:12:44;34.35;;;20.23;;
21671;SDS011;10997;52.242;8.168;2022-11-21T08:17:44;36.60;;;20.75;;
21671;SDS011;10997;52.242;8.168;2022-11-21T08:22:45;36.72;;;20.55;;
21671;SDS011;10997;52.242;8.168;2022-11-21T08:27:46;35.70;;;20.70;;
21671;SDS011;10997;52.242;8.168;2022-11-21T08:32:46;37.05;;;21.73;;
21671;SDS011;10997;52.242;8.168;2022-11-21T08:37:47;33.50;;;19.98;;
21671;SDS011;10997;52.242;8.168;2022-11-21T08:42:54;32.58;;;19.23;;
21671;SDS011;10997;52.242;8.168;2022-11-21T08:47:56;30.63;;;17.90;;
21671;SDS011;10997;52.242;8.168;2022-11-21T08:53:00;34.78;;;20.67;;
21671;SDS011;10997;52.242;8.168;2022-11-21T08:58:01;27.55;;;16.02;;
21671;SDS011;10997;52.242;8.168;2022-11-21T09:03:04;29.25;;;16.98;;
21671;SDS011;10997;52.242;8.168;2022-11-21T09:08:05;28.08;;;17.55;;
21671;SDS011;10997;52.242;8.168;2022-11-21T09:13:06;32.88;;;20.58;;
21671;SDS011;10997;52.242;8.168;2022-11-21T09:18:06;26.10;;;17.38;;
21671;SDS011;10997;52.242;8.168;2022-11-21T09:23:08;31.90;;;19.55;;
21671;SDS011;10997;52.242;8.168;2022-11-21T09:28:13;33.63;;;21.98;;
21671;SDS011;10997;52.242;8.168;2022-11-21T09:33:14;30.58;;;19.33;;
21671;SDS011;10997;52.242;8.168;2022-11-21T09:38:15;32.33;;;19.73;;
21671;SDS011;10997;52.242;8.168;2022-11-21T09:48:47;29.70;;;18.70;;
21671;SDS011;10997;52.242;8.168;2022-11-21T09:54:21;26.45;;;16.48;;
21671;SDS011;10997;52.242;8.168;2022-11-21T09:59:28;20.55;;;13.25;;
21671;SDS011;10997;52.242;8.168;2022-11-21T10:04:33;28.15;;;17.60;;
21671;SDS011;10997;52.242;8.168;2022-11-21T10:25:52;25.13;;;16.88;;
21671;SDS011;10997;52.242;8.168;2022-11-21T10:31:18;21.70;;;15.23;;
21671;SDS011;10997;52.242;8.168;2022-11-21T10:36:27;25.55;;;17.67;;
21671;SDS011;10997;52.242;8.168;2022-11-21T10:46:41;22.65;;;15.35;;
21671;SDS011;10997;52.242;8.168;2022-11-21T11:07:20;27.15;;;16.73;;
21671;SDS011;10997;52.242;8.168;2022-11-21T11:17:53;25.83;;;17.60;;
21671;SDS011;10997;52.242;8.168;2022-11-21T11:22:57;28.10;;;17.30;;
21671;SDS011;10997;52.242;8.168;2022-11-21T11:27:58;27.85;;;17.80;;
21671;SDS011;10997;52.242;8.168;2022-11-21T11:38:29;25.58;;;15.38;;
21671;SDS011;10997;52.242;8.168;2022-11-21T11:43:36;26.13;;;17.17;;
21671;SDS011;10997;52.242;8.168;2022-11-21T11:49:34;30.23;;;18.40;;
21671;SDS011;10997;52.242;8.168;2022-11-21T11:55:02;25.58;;;15.23;;
21671;SDS011;10997;52.242;8.168;2022-11-21T12:00:15;24.02;;;15.38;;
21671;SDS011;10997;52.242;8.168;2022-11-21T12:05:27;26.33;;;16.95;;
21671;SDS011;10997;52.242;8.168;2022-11-21T12:15:46;24.48;;;15.25;;
21671;SDS011;10997;52.242;8.168;2022-11-21T12:36:42;27.48;;;16.65;;
21671;SDS011;10997;52.242;8.168;2022-11-21T12:52:49;28.13;;;16.80;;
21671;SDS011;10997;52.242;8.168;2022-11-21T13:08:39;67.10;;;38.90;;
21671;SDS011;10997;52.242;8.168;2022-11-21T13:13:41;32.72;;;20.83;;
21671;SDS011;10997;52.242;8.168;2022-11-21T13:18:45;41.80;;;26.92;;
21671;SDS011;10997;52.242;8.168;2022-11-21T13:23:47;28.95;;;17.52;;
21671;SDS011;10997;52.242;8.168;2022-11-21T13:28:47;35.38;;;22.35;;
21671;SDS011;10997;52.242;8.168;2022-11-21T13:33:49;28.80;;;17.15;;
21671;SDS011;10997;52.242;8.168;2022-11-21T13:44:21;29.35;;;17.58;;
21671;SDS011;10997;52.242;8.168;2022-11-21T14:15:31;34.00;;;19.27;;
21671;SDS011;10997;52.242;8.168;2022-11-21T14:20:54;28.15;;;16.65;;
21671;SDS011;10997;52.242;8.168;2022-11-21T14:26:03;28.15;;;16.45;;
21671;SDS011;10997;52.242;8.168;2022-11-21T14:31:11;30.48;;;17.63;;
21671;SDS011;10997;52.242;8.168;2022-11-21T14:46:22;29.30;;;16.83;;
21671;SDS011;10997;52.242;8.168;2022-11-21T14:51:30;30.05;;;18.38;;
21671;SDS011;10997;52.242;8.168;2022-11-21T14:56:31;34.20;;;22.98;;
21671;SDS011;10997;52.242;8.168;2022-11-21T15:01:33;31.50;;;19.10;;
21671;SDS011;10997;52.242;8.168;2022-11-21T15:06:41;28.08;;;17.45;;
21671;SDS011;10997;52.242;8.168;2022-11-21T15:11:50;26.42;;;15.73;;
21671;SDS011;10997;52.242;8.168;2022-11-21T15:16:55;30.00;;;18.83;;
21671;SDS011;10997;52.242;8.168;2022-11-21T15:21:59;38.45;;;22.90;;
21671;SDS011;10997;52.242;8.168;2022-11-21T15:43:36;36.42;;;21.73;;
21671;SDS011;10997;52.242;8.168;2022-11-21T15:48:38;38.97;;;25.55;;
21671;SDS011;10997;52.242;8.168;2022-11-21T15:53:38;31.80;;;18.85;;
21671;SDS011;10997;52.242;8.168;2022-11-21T15:58:39;60.40;;;46.40;;
21671;SDS011;10997;52.242;8.168;2022-11-21T16:03:40;37.53;;;21.80;;
21671;SDS011;10997;52.242;8.168;2022-11-21T16:08:41;35.97;;;20.88;;
21671;SDS011;10997;52.242;8.168;2022-11-21T16:13:42;41.15;;;22.40;;
21671;SDS011;10997;52.242;8.168;2022-11-21T16:18:47;42.03;;;27.35;;
21671;SDS011;10997;52.242;8.168;2022-11-21T16:23:49;51.65;;;32.58;;
21671;SDS011;10997;52.242;8.168;2022-11-21T16:28:51;45.20;;;26.45;;
21671;SDS011;10997;52.242;8.168;2022-11-21T16:33:53;41.72;;;21.65;;
21671;SDS011;10997;52.242;8.168;2022-11-21T16:38:54;46.97;;;21.98;;
21671;SDS011;10997;52.242;8.168;2022-11-21T16:43:56;47.15;;;23.67;;
21671;SDS011;10997;52.242;8.168;2022-11-21T16:48:58;62.85;;;32.25;;
21671;SDS011;10997;52.242;8.168;2022-11-21T16:54:00;52.55;;;26.98;;
21671;SDS011;10997;52.242;8.168;2022-11-21T16:59:01;45.90;;;23.15;;
21671;SDS011;10997;52.242;8.168;2022-11-21T17:04:01;48.45;;;25.17;;
21671;SDS011;10997;52.242;8.168;2022-11-21T17:09:02;45.50;;;22.85;;
21671;SDS011;10997;52.242;8.168;2022-11-21T17:14:03;46.15;;;23.25;;
21671;SDS011;10997;52.242;8.168;2022-11-21T17:19:05;89.18;;;63.90;;
21671;SDS011;10997;52.242;8.168;2022-11-21T17:24:05;46.72;;;23.20;;
21671;SDS011;10997;52.242;8.168;2022-11-21T17:29:06;50.38;;;28.48;;
21671;SDS011;10997;52.242;8.168;2022-11-21T17:34:08;55.33;;;31.75;;
21671;SDS011;10997;52.242;8.168;2022-11-21T17:39:08;47.45;;;23.63;;
21671;SDS011;10997;52.242;8.168;2022-11-21T17:44:12;45.00;;;24.35;;
21671;SDS011;10997;52.242;8.168;2022-11-21T17:49:14;54.25;;;27.02;;
21671;SDS011;10997;52.242;8.168;2022-11-21T17:54:15;53.85;;;32.22;;
21671;SDS011;10997;52.242;8.168;2022-11-21T17:59:16;51.90;;;28.70;;
21671;SDS011;10997;52.242;8.168;2022-11-21T18:04:16;54.67;;;35.03;;
21671;SDS011;10997;52.242;8.168;2022-11-21T18:09:17;49.22;;;29.25;;
21671;SDS011;10997;52.242;8.168;2022-11-21T18:14:18;43.28;;;26.15;;
21671;SDS011;10997;52.242;8.168;2022-11-21T18:19:18;48.72;;;27.75;;
21671;SDS011;10997;52.242;8.168;2022-11-21T18:24:20;45.10;;;26.13;;
21671;SDS011;10997;52.242;8.168;2022-11-21T18:29:20;43.83;;;25.55;;
21671;SDS011;10997;52.242;8.168;2022-11-21T18:34:23;45.15;;;23.80;;
21671;SDS011;10997;52.242;8.168;2022-11-21T18:39:24;42.80;;;25.38;;
21671;SDS011;10997;52.242;8.168;2022-11-21T18:44:25;53.42;;;33.08;;
21671;SDS011;10997;52.242;8.168;2022-11-21T18:49:26;46.83;;;26.40;;
21671;SDS011;10997;52.242;8.168;2022-11-21T18:54:27;50.67;;;30.30;;
21671;SDS011;10997;52.242;8.168;2022-11-21T18:59:27;53.30;;;33.25;;
21671;SDS011;10997;52.242;8.168;2022-11-21T19:04:28;49.72;;;26.60;;
21671;SDS011;10997;52.242;8.168;2022-11-21T19:09:29;50.00;;;25.55;;
21671;SDS011;10997;52.242;8.168;2022-11-21T19:14:29;50.60;;;28.20;;
21671;SDS011;10997;52.242;8.168;2022-11-21T19:19:30;54.60;;;29.15;;
21671;SDS011;10997;52.242;8.168;2022-11-21T19:24:30;61.20;;;31.17;;
21671;SDS011;10997;52.242;8.168;2022-11-21T19:29:32;55.10;;;26.70;;
21671;SDS011;10997;52.242;8.168;2022-11-21T19:34:33;68.43;;;40.95;;
21671;SDS011;10997;52.242;8.168;2022-11-21T19:39:33;53.63;;;26.20;;
21671;SDS011;10997;52.242;8.168;2022-11-21T19:44:34;61.30;;;29.17;;
21671;SDS011;10997;52.242;8.168;2022-11-21T19:49:34;119.45;;;69.28;;
21671;SDS011;10997;52.242;8.168;2022-11-21T19:54:35;65.40;;;31.33;;
21671;SDS011;10997;52.242;8.168;2022-11-21T19:59:36;64.85;;;37.22;;
21671;SDS011;10997;52.242;8.168;2022-11-21T20:04:36;53.22;;;26.77;;
21671;SDS011;10997;52.242;8.168;2022-11-21T20:09:37;82.72;;;52.75;;
21671;SDS011;10997;52.242;8.168;2022-11-21T20:14:38;66.25;;;32.22;;
21671;SDS011;10997;52.242;8.168;2022-11-21T20:19:38;67.47;;;32.28;;
21671;SDS011;10997;52.242;8.168;2022-11-21T20:24:39;59.80;;;28.98;;
21671;SDS011;10997;52.242;8.168;2022-11-21T20:29:40;75.30;;;37.83;;
21671;SDS011;10997;52.242;8.168;2022-11-21T20:34:40;64.63;;;31.55;;
21671;SDS011;10997;52.242;8.168;2022-11-21T20:39:41;64.78;;;33.72;;
21671;SDS011;10997;52.242;8.168;2022-11-21T20:44:41;66.47;;;36.50;;
21671;SDS011;10997;52.242;8.168;2022-11-21T20:49:42;77.32;;;42.55;;
21671;SDS011;10997;52.242;8.168;2022-11-21T20:54:43;74.13;;;38.95;;
21671;SDS011;10997;52.242;8.168;2022-11-21T20:59:43;70.47;;;39.33;;
21671;SDS011;10997;52.242;8.168;2022-11-21T21:04:44;66.40;;;34.35;;
21671;SDS011;10997;52.242;8.168;2022-11-21T21:09:45;60.17;;;27.60;;
21671;SDS011;10997;52.242;8.168;2022-11-21T21:14:45;53.95;;;27.05;;
21671;SDS011;10997;52.242;8.168;2022-11-21T21:19:46;53.70;;;26.30;;
21671;SDS011;10997;52.242;8.168;2022-11-21T21:24:47;57.70;;;26.65;;
21671;SDS011;10997;52.242;8.168;2022-11-21T21:29:47;64.35;;;30.80;;
21671;SDS011;10997;52.242;8.168;2022-11-21T21:34:48;107.18;;;58.40;;
21671;SDS011;10997;52.242;8.168;2022-11-21T21:39:49;69.32;;;36.83;;
21671;SDS011;10997;52.242;8.168;2022-11-21T21:44:49;69.18;;;38.03;;
21671;SDS011;10997;52.242;8.168;2022-11-21T21:49:50;63.35;;;31.00;;
21671;SDS011;10997;52.242;8.168;2022-11-21T21:54:51;79.88;;;43.70;;
21671;SDS011;10997;52.242;8.168;2022-11-21T21:59:51;61.30;;;29.98;;
21671;SDS011;10997;52.242;8.168;2022-11-21T22:04:52;53.10;;;24.63;;
21671;SDS011;10997;52.242;8.168;2022-11-21T22:09:52;53.33;;;26.75;;
21671;SDS011;10997;52.242;8.168;2022-11-21T22:14:53;52.83;;;25.02;;
21671;SDS011;10997;52.242;8.168;2022-11-21T22:19:54;50.22;;;25.65;;
21671;SDS011;10997;52.242;8.168;2022-11-21T22:24:55;51.72;;;26.20;;
21671;SDS011;10997;52.242;8.168;2022-11-21T22:29:55;48.03;;;25.23;;
21671;SDS011;10997;52.242;8.168;2022-11-21T22:34:56;49.05;;;25.10;;
21671;SDS011;10997;52.242;8.168;2022-11-21T22:39:57;54.22;;;27.55;;
21671;SDS011;10997;52.242;8.168;2022-11-21T22:44:57;62.05;;;30.23;;
21671;SDS011;10997;52.242;8.168;2022-11-21T22:49:58;48.92;;;25.27;;
21671;SDS011;10997;52.242;8.168;2022-11-21T22:54:59;45.42;;;23.60;;
21671;SDS011;10997;52.242;8.168;2022-11-21T22:59:59;41.65;;;23.10;;
21671;SDS011;10997;52.242;8.168;2022-11-21T23:05:00;42.88;;;22.98;;
21671;SDS011;10997;52.242;8.168;2022-11-21T23:10:01;42.60;;;23.10;;
21671;SDS011;10997;52.242;8.168;2022-11-21T23:15:02;42.65;;;23.63;;
21671;SDS011;10997;52.242;8.168;2022-11-21T23:20:03;39.92;;;22.88;;
21671;SDS011;10997;52.242;8.168;2022-11-21T23:25:04;43.00;;;22.80;;
21671;SDS011;10997;52.242;8.168;2022-11-21T23:30:05;41.33;;;23.05;;
21671;SDS011;10997;52.242;8.168;2022-11-21T23:35:06;40.30;;;21.95;;
21671;SDS011;10997;52.242;8.168;2022-11-21T23:40:07;41.92;;;22.98;;
21671;SDS011;10997;52.242;8.168;2022-11-21T23:45:08;37.38;;;21.42;;
21671;SDS011;10997;52.242;8.168;2022-11-21T23:50:09;40.75;;;22.85;;
21671;SDS011;10997;52.242;8.168;2022-11-21T23:55:10;38.72;;;21.63;;
